createdAt,value
2022-08-04T00:00:23.422Z,63.95
2022-08-04T00:01:23.749Z,64.25
2022-08-04T00:02:23.769Z,64.15
2022-08-04T00:03:23.982Z,63.85
2022-08-04T00:04:24.191Z,63.45
2022-08-04T00:05:24.389Z,63.02
2022-08-04T00:06:24.601Z,63.02
2022-08-04T00:07:44.553Z,63.52
2022-08-04T00:08:26.060Z,63.12
2022-08-04T00:09:25.263Z,63.42
2022-08-04T00:10:25.458Z,63.65
2022-08-04T00:11:25.670Z,63.45
2022-08-04T00:12:29.351Z,63.42
2022-08-04T00:13:27.039Z,63.05
2022-08-04T00:14:26.232Z,63.55
2022-08-04T00:15:26.430Z,63.55
2022-08-04T00:16:32.913Z,64.04
2022-08-04T00:17:27.803Z,64.45
2022-08-04T00:18:26.989Z,64.54
2022-08-04T00:19:27.188Z,64.01
2022-08-04T00:20:27.382Z,63.92
2022-08-04T00:21:27.600Z,63.72
2022-08-04T00:22:27.802Z,63.62
2022-08-04T00:23:28.018Z,63.42
2022-08-04T00:24:29.257Z,63.32
2022-08-04T00:25:28.454Z,62.52
2022-08-04T00:26:28.681Z,62.23
2022-08-04T00:27:28.871Z,62.42
2022-08-04T00:28:29.070Z,62.42
2022-08-04T00:29:29.269Z,62.82
2022-08-04T00:30:29.464Z,64.01
2022-08-04T00:31:54.092Z,64.31
2022-08-04T00:32:34.427Z,64.22
2022-08-04T00:33:30.061Z,63.72
2022-08-04T00:34:30.250Z,63.92
2022-08-04T00:35:30.460Z,64.61
2022-08-04T00:36:30.674Z,64.72
2022-08-04T00:37:30.881Z,64.54
2022-08-04T00:38:31.077Z,65.05
2022-08-04T00:39:31.378Z,65.14
2022-08-04T00:40:31.505Z,65.05
2022-08-04T00:41:31.720Z,64.75
2022-08-04T00:42:31.933Z,64.84
2022-08-04T00:43:32.121Z,64.75
2022-08-04T00:44:32.322Z,64.75
2022-08-04T00:46:09.471Z,64.94
2022-08-04T00:46:33.689Z,64.75
2022-08-04T00:47:32.880Z,63.55
2022-08-04T00:48:33.072Z,62.15
2022-08-04T00:49:33.282Z,64.04
2022-08-04T00:50:33.480Z,64.54
2022-08-04T00:51:33.680Z,63.25
2022-08-04T00:52:34.108Z,64.12
2022-08-04T00:53:34.087Z,62.55
2022-08-04T00:54:34.286Z,62.45
2022-08-04T00:55:34.485Z,63.05
2022-08-04T00:56:34.684Z,63.05
2022-08-04T00:57:35.032Z,63.05
2022-08-04T00:58:35.102Z,62.95
2022-08-04T00:59:35.301Z,63.05
2022-08-04T01:00:35.505Z,63.55
2022-08-04T01:01:35.724Z,63.55
2022-08-04T01:02:35.953Z,63.55
2022-08-04T01:03:36.145Z,63.45
2022-08-04T01:04:36.337Z,64.15
2022-08-04T01:05:37.633Z,64.45
2022-08-04T01:06:36.745Z,64.75
2022-08-04T01:07:36.944Z,64.54
2022-08-04T01:08:37.150Z,64.15
2022-08-04T01:09:37.338Z,63.85
2022-08-04T01:10:37.524Z,62.65
2022-08-04T01:11:56.587Z,63.75
2022-08-04T01:12:38.871Z,63.55
2022-08-04T01:13:38.055Z,63.95
2022-08-04T01:14:38.250Z,63.45
2022-08-04T01:15:59.330Z,63.35
2022-08-04T01:16:39.691Z,63.25
2022-08-04T01:17:38.898Z,63.85
2022-08-04T01:18:39.099Z,64.04
2022-08-04T01:19:39.290Z,64.25
2022-08-04T01:20:39.485Z,63.35
2022-08-04T01:21:39.679Z,64.48
2022-08-04T01:22:39.887Z,63.88
2022-08-04T01:23:40.080Z,63.58
2022-08-04T01:24:40.260Z,63.88
2022-08-04T01:25:40.479Z,63.08
2022-08-04T01:26:43.797Z,63.88
2022-08-04T01:27:41.899Z,64.07
2022-08-04T01:28:42.905Z,64.07
2022-08-04T01:29:47.368Z,64.58
2022-08-04T01:30:42.560Z,63.38
2022-08-04T01:31:41.764Z,65.17
2022-08-04T01:32:41.989Z,65.41
2022-08-04T01:34:02.994Z,65.41
2022-08-04T01:34:43.349Z,65.70
2022-08-04T01:35:47.976Z,66.00
2022-08-04T01:36:43.730Z,65.91
2022-08-04T01:37:43.884Z,65.91
2022-08-04T01:38:43.081Z,65.41
2022-08-04T01:39:43.278Z,65.70
2022-08-04T01:40:43.478Z,65.31
2022-08-04T01:41:43.675Z,65.61
2022-08-04T01:42:44.849Z,65.11
2022-08-04T01:43:44.089Z,64.90
2022-08-04T01:44:44.281Z,64.61
2022-08-04T01:45:44.477Z,65.11
2022-08-04T01:46:44.677Z,65.80
2022-08-04T01:47:44.905Z,65.70
2022-08-04T01:48:45.120Z,66.00
2022-08-04T01:49:45.320Z,66.30
2022-08-04T01:50:45.519Z,65.31
2022-08-04T01:51:46.776Z,66.20
2022-08-04T01:52:50.770Z,65.41
2022-08-04T01:53:47.133Z,65.70
2022-08-04T01:54:46.329Z,64.90
2022-08-04T01:55:54.139Z,65.01
2022-08-04T01:56:47.786Z,65.70
2022-08-04T01:57:47.091Z,65.80
2022-08-04T01:58:47.212Z,64.51
2022-08-04T01:59:47.406Z,64.81
2022-08-04T02:00:47.611Z,65.20
2022-08-04T02:01:47.872Z,65.20
2022-08-04T02:02:48.086Z,65.70
2022-08-04T02:04:20.776Z,64.74
2022-08-04T02:04:49.309Z,64.84
2022-08-04T02:06:03.767Z,65.73
2022-08-04T02:06:49.670Z,65.44
2022-08-04T02:07:48.907Z,64.64
2022-08-04T02:08:49.109Z,65.04
2022-08-04T02:09:53.846Z,64.94
2022-08-04T02:10:50.479Z,65.23
2022-08-04T02:11:49.678Z,65.83
2022-08-04T02:12:49.907Z,65.64
2022-08-04T02:13:50.124Z,65.83
2022-08-04T02:14:50.333Z,64.94
2022-08-04T02:15:50.548Z,65.44
2022-08-04T02:16:52.541Z,65.34
2022-08-04T02:17:50.969Z,65.94
2022-08-04T02:18:51.181Z,65.44
2022-08-04T02:19:51.379Z,65.34
2022-08-04T02:20:51.587Z,65.64
2022-08-04T02:21:51.791Z,64.74
2022-08-04T02:22:52.007Z,65.14
2022-08-04T02:23:52.223Z,65.44
2022-08-04T02:24:52.420Z,65.64
2022-08-04T02:25:52.629Z,66.03
2022-08-04T02:26:52.849Z,65.44
2022-08-04T02:28:00.185Z,65.53
2022-08-04T02:28:54.238Z,64.74
2022-08-04T02:29:53.458Z,65.14
2022-08-04T02:30:53.670Z,65.23
2022-08-04T02:31:53.879Z,65.37
2022-08-04T02:32:54.099Z,64.77
2022-08-04T02:33:54.307Z,65.67
2022-08-04T02:34:54.515Z,65.77
2022-08-04T02:35:54.718Z,66.06
2022-08-04T02:36:54.933Z,66.06
2022-08-04T02:37:55.152Z,66.56
2022-08-04T02:38:55.419Z,66.60
2022-08-04T02:39:55.561Z,66.60
2022-08-04T02:40:56.570Z,67.30
2022-08-04T02:41:55.980Z,67.80
2022-08-04T02:42:56.212Z,67.69
2022-08-04T02:43:56.438Z,67.69
2022-08-04T02:44:56.643Z,67.00
2022-08-04T02:45:56.840Z,67.30
2022-08-04T02:46:57.038Z,67.40
2022-08-04T02:48:30.522Z,67.10
2022-08-04T02:48:58.416Z,67.19
2022-08-04T02:49:57.619Z,66.73
2022-08-04T02:50:57.830Z,67.30
2022-08-04T02:51:58.032Z,67.13
2022-08-04T02:52:58.300Z,67.72
2022-08-04T02:53:58.493Z,67.03
2022-08-04T02:54:58.703Z,67.83
2022-08-04T02:55:58.921Z,67.93
2022-08-04T02:56:59.116Z,68.13
2022-08-04T02:57:59.326Z,67.72
2022-08-04T02:58:59.548Z,67.93
2022-08-04T02:59:59.746Z,66.83
2022-08-04T03:01:00.012Z,67.72
2022-08-04T03:02:00.202Z,66.83
2022-08-04T03:03:00.420Z,66.30
2022-08-04T03:04:00.626Z,66.89
2022-08-04T03:05:00.825Z,66.50
2022-08-04T03:06:01.940Z,65.60
2022-08-04T03:07:01.196Z,66.60
2022-08-04T03:08:01.419Z,65.50
2022-08-04T03:09:01.619Z,65.60
2022-08-04T03:10:01.813Z,65.70
2022-08-04T03:11:02.022Z,66.60
2022-08-04T03:12:02.231Z,66.80
2022-08-04T03:13:02.452Z,66.80
2022-08-04T03:14:02.651Z,66.80
2022-08-04T03:15:02.824Z,66.73
2022-08-04T03:16:03.028Z,66.83
2022-08-04T03:17:03.226Z,66.23
2022-08-04T03:18:03.453Z,66.93
2022-08-04T03:19:03.673Z,66.53
2022-08-04T03:20:03.877Z,66.43
2022-08-04T03:21:04.089Z,66.93
2022-08-04T03:22:04.305Z,67.33
2022-08-04T03:23:13.564Z,66.83
2022-08-04T03:24:05.702Z,66.83
2022-08-04T03:25:04.907Z,66.93
2022-08-04T03:26:05.124Z,66.53
2022-08-04T03:27:05.336Z,66.73
2022-08-04T03:28:05.556Z,66.93
2022-08-04T03:29:12.786Z,66.93
2022-08-04T03:30:08.613Z,67.23
2022-08-04T03:31:08.844Z,67.23
2022-08-04T03:32:08.149Z,67.13
2022-08-04T03:33:06.593Z,67.33
2022-08-04T03:34:06.808Z,67.13
2022-08-04T03:35:07.027Z,67.13
2022-08-04T03:36:07.279Z,66.93
2022-08-04T03:37:07.493Z,67.26
2022-08-04T03:38:07.725Z,67.56
2022-08-04T03:39:07.982Z,67.86
2022-08-04T03:40:10.625Z,67.76
2022-08-04T03:41:08.374Z,67.76
2022-08-04T03:42:09.710Z,67.86
2022-08-04T03:43:08.866Z,68.66
2022-08-04T03:44:10.024Z,68.46
2022-08-04T03:45:23.105Z,68.36
2022-08-04T03:46:10.395Z,68.16
2022-08-04T03:47:09.596Z,68.36
2022-08-04T03:48:09.823Z,68.26
2022-08-04T03:49:10.029Z,68.26
2022-08-04T03:50:10.234Z,68.36
2022-08-04T03:51:10.444Z,68.56
2022-08-04T03:52:11.605Z,68.36
2022-08-04T03:53:10.831Z,68.16
2022-08-04T03:54:11.034Z,67.86
2022-08-04T03:55:11.248Z,67.33
2022-08-04T03:56:11.463Z,66.93
2022-08-04T03:57:11.685Z,67.03
2022-08-04T03:58:11.908Z,66.83
2022-08-04T03:59:12.143Z,67.23
2022-08-04T04:00:12.347Z,67.43
2022-08-04T04:01:12.560Z,67.13
2022-08-04T04:02:12.852Z,67.63
2022-08-04T04:03:13.090Z,67.63
2022-08-04T04:04:14.250Z,66.93
2022-08-04T04:05:13.497Z,67.43
2022-08-04T04:06:15.120Z,67.23
2022-08-04T04:07:14.213Z,67.60
2022-08-04T04:08:16.454Z,66.70
2022-08-04T04:09:20.621Z,66.70
2022-08-04T04:10:15.566Z,67.49
2022-08-04T04:11:14.752Z,67.90
2022-08-04T04:12:14.952Z,67.49
2022-08-04T04:13:15.172Z,67.60
2022-08-04T04:14:15.379Z,67.10
2022-08-04T04:15:15.625Z,67.40
2022-08-04T04:16:15.835Z,67.00
2022-08-04T04:17:16.031Z,67.10
2022-08-04T04:18:16.264Z,67.43
2022-08-04T04:19:16.478Z,67.33
2022-08-04T04:20:16.695Z,67.83
2022-08-04T04:21:16.901Z,67.53
2022-08-04T04:22:17.099Z,67.40
2022-08-04T04:23:17.359Z,67.10
2022-08-04T04:24:17.534Z,67.19
2022-08-04T04:25:17.732Z,66.89
2022-08-04T04:26:17.941Z,66.89
2022-08-04T04:27:18.146Z,67.00
2022-08-04T04:28:43.554Z,66.89
2022-08-04T04:29:19.506Z,67.00
2022-08-04T04:30:18.705Z,67.00
2022-08-04T04:31:18.937Z,67.10
2022-08-04T04:32:19.147Z,67.10
2022-08-04T04:33:19.377Z,67.00
2022-08-04T04:34:19.593Z,67.10
2022-08-04T04:35:19.807Z,67.19
2022-08-04T04:36:20.003Z,67.10
2022-08-04T04:37:20.425Z,67.00
2022-08-04T04:38:20.476Z,67.00
2022-08-04T04:39:20.721Z,67.40
2022-08-04T04:40:20.939Z,67.19
2022-08-04T04:41:21.147Z,67.07
2022-08-04T04:42:21.426Z,67.07
2022-08-04T04:43:21.574Z,66.47
2022-08-04T04:44:25.237Z,66.36
2022-08-04T04:45:22.983Z,66.36
2022-08-04T04:46:22.201Z,66.06
2022-08-04T04:47:22.402Z,65.77
2022-08-04T04:48:23.577Z,65.97
2022-08-04T04:49:22.779Z,65.97
2022-08-04T04:50:22.992Z,65.87
2022-08-04T04:51:24.144Z,66.06
2022-08-04T04:52:23.342Z,65.97
2022-08-04T04:53:23.569Z,65.97
2022-08-04T04:54:23.788Z,65.67
2022-08-04T04:55:23.981Z,66.06
2022-08-04T04:56:24.195Z,65.77
2022-08-04T04:57:54.017Z,65.97
2022-08-04T04:58:25.550Z,66.03
2022-08-04T04:59:24.757Z,65.83
2022-08-04T05:00:24.998Z,65.64
2022-08-04T05:01:25.182Z,65.44
2022-08-04T05:02:25.387Z,65.64
2022-08-04T05:03:25.592Z,65.23
2022-08-04T05:04:25.816Z,65.34
2022-08-04T05:05:26.006Z,65.14
2022-08-04T05:06:26.204Z,65.14
2022-08-04T05:07:26.413Z,65.34
2022-08-04T05:08:41.372Z,65.20
2022-08-04T05:09:27.772Z,65.20
2022-08-04T05:10:26.972Z,65.11
2022-08-04T05:11:27.174Z,65.01
2022-08-04T05:14:30.870Z,64.90
2022-08-04T05:14:35.876Z,64.71
2022-08-04T05:14:38.057Z,64.51
2022-08-04T05:15:29.169Z,64.81
2022-08-04T05:16:28.361Z,64.51
2022-08-04T05:17:28.562Z,64.21
2022-08-04T05:18:28.759Z,64.37
2022-08-04T05:19:28.982Z,63.88
2022-08-04T05:20:29.186Z,64.18
2022-08-04T05:21:29.387Z,63.88
2022-08-04T05:22:29.598Z,63.68
2022-08-04T05:23:29.801Z,63.55
2022-08-04T05:24:30.005Z,63.15
2022-08-04T05:25:31.156Z,63.15
2022-08-04T05:26:30.352Z,63.15
2022-08-04T05:27:30.542Z,63.15
2022-08-04T05:28:30.750Z,62.95
2022-08-04T05:29:31.880Z,62.85
2022-08-04T05:30:31.122Z,62.75
2022-08-04T05:31:31.321Z,62.72
2022-08-04T05:32:31.530Z,63.02
2022-08-04T05:33:31.723Z,62.72
2022-08-04T05:34:31.917Z,62.42
2022-08-04T05:35:52.111Z,62.72
2022-08-04T05:36:41.108Z,62.42
2022-08-04T05:37:33.627Z,62.29
2022-08-04T05:38:32.822Z,62.10
2022-08-04T05:39:34.581Z,61.99
2022-08-04T05:40:33.238Z,61.99
2022-08-04T05:41:45.484Z,61.99
2022-08-04T05:42:34.612Z,61.50
2022-08-04T05:43:33.790Z,61.57
2022-08-04T05:44:33.999Z,60.77
2022-08-04T05:45:39.360Z,60.97
2022-08-04T05:46:35.452Z,60.68
2022-08-04T05:47:34.651Z,60.97
2022-08-04T05:48:34.850Z,61.24
2022-08-04T05:49:35.045Z,60.05
2022-08-04T05:50:35.249Z,60.35
2022-08-04T05:51:35.421Z,59.95
2022-08-04T05:52:35.622Z,58.86
2022-08-04T05:53:35.817Z,59.42
2022-08-04T05:54:36.025Z,58.62
2022-08-04T05:55:57.948Z,58.53
2022-08-04T05:56:37.357Z,58.33
2022-08-04T05:57:36.541Z,57.21
2022-08-04T05:58:36.740Z,57.21
2022-08-04T05:59:36.931Z,57.70
2022-08-04T06:00:41.056Z,56.91
2022-08-04T06:01:54.877Z,56.91
2022-08-04T06:02:38.504Z,57.68
2022-08-04T06:03:37.701Z,57.68
2022-08-04T06:04:37.899Z,56.09
2022-08-04T06:05:38.090Z,56.16
2022-08-04T06:06:38.280Z,55.57
2022-08-04T06:08:12.239Z,55.87
2022-08-04T06:08:39.625Z,55.07
2022-08-04T06:09:38.814Z,55.66
2022-08-04T06:10:38.990Z,55.64
2022-08-04T06:12:03.271Z,55.64
2022-08-04T06:12:40.432Z,55.21
2022-08-04T06:13:48.217Z,54.62
2022-08-04T06:14:40.779Z,55.11
2022-08-04T06:15:39.956Z,54.10
2022-08-04T06:16:41.100Z,54.69
2022-08-04T06:19:57.670Z,54.20
2022-08-04T06:20:01.891Z,53.78
2022-08-04T06:20:02.708Z,53.78
2022-08-04T06:20:49.998Z,52.56
2022-08-04T06:21:41.881Z,52.86
2022-08-04T06:22:41.071Z,52.66
2022-08-04T06:23:56.145Z,53.23
2022-08-04T06:24:42.426Z,52.04
2022-08-04T06:25:41.610Z,51.52
2022-08-04T06:26:41.792Z,51.23
2022-08-04T06:27:41.982Z,51.82
2022-08-04T06:28:42.170Z,50.71
2022-08-04T06:29:51.279Z,50.71
2022-08-04T06:30:43.514Z,50.09
2022-08-04T06:32:29.525Z,49.20
2022-08-04T06:32:43.839Z,49.18
2022-08-04T06:33:55.117Z,48.78
2022-08-04T06:34:44.199Z,48.68
2022-08-04T06:35:43.372Z,49.05
2022-08-04T06:36:43.557Z,49.15
2022-08-04T06:37:44.480Z,48.36
2022-08-04T06:38:43.951Z,48.36
2022-08-04T06:39:44.188Z,48.74
2022-08-04T06:40:44.358Z,47.35
2022-08-04T06:42:02.419Z,47.25
2022-08-04T06:42:45.674Z,47.25
2022-08-04T06:43:44.859Z,46.94
2022-08-04T06:44:45.047Z,47.31
2022-08-04T06:45:45.223Z,46.52
2022-08-04T06:46:45.396Z,47.19
2022-08-04T06:47:45.596Z,46.00
2022-08-04T06:48:45.762Z,45.71
2022-08-04T06:51:26.237Z,46.50
2022-08-04T06:51:30.340Z,45.31
2022-08-04T06:51:49.496Z,45.68
2022-08-04T06:52:46.387Z,45.27
2022-08-04T06:53:46.573Z,46.06
2022-08-04T06:54:46.764Z,44.66
2022-08-04T06:55:46.942Z,45.72
2022-08-04T06:56:47.114Z,43.16
2022-08-04T06:57:47.292Z,43.51
2022-08-04T06:58:47.473Z,43.41
2022-08-04T06:59:47.654Z,42.51
2022-08-04T07:00:47.812Z,41.92
2022-08-04T07:01:48.107Z,42.39
2022-08-04T07:02:48.229Z,42.27
2022-08-04T07:03:50.702Z,41.27
2022-08-04T07:04:48.543Z,40.90
2022-08-04T07:05:48.703Z,41.88
2022-08-04T07:06:48.872Z,41.00
2022-08-04T07:07:56.552Z,41.19
2022-08-04T07:08:50.143Z,41.25
2022-08-04T07:09:49.330Z,40.25
2022-08-04T07:10:49.492Z,40.25
2022-08-04T07:11:49.652Z,40.23
2022-08-04T07:12:49.813Z,40.03
2022-08-04T07:13:49.981Z,38.84
2022-08-04T07:14:50.146Z,38.75
2022-08-04T07:15:50.293Z,38.86
2022-08-04T07:16:50.453Z,39.45
2022-08-04T07:17:52.199Z,38.84
2022-08-04T07:18:50.736Z,38.82
2022-08-04T07:19:50.905Z,38.43
2022-08-04T07:20:51.065Z,37.93
2022-08-04T07:22:25.021Z,38.12
2022-08-04T07:22:52.331Z,38.43
2022-08-04T07:23:51.487Z,38.20
2022-08-04T07:24:51.659Z,37.87
2022-08-04T07:26:11.067Z,36.29
2022-08-04T07:26:52.914Z,36.37
2022-08-04T07:27:52.061Z,36.94
2022-08-04T07:28:52.214Z,36.66
2022-08-04T07:29:52.365Z,36.00
2022-08-04T07:30:52.526Z,36.68
2022-08-04T07:31:52.666Z,36.68
2022-08-04T07:32:52.794Z,36.47
2022-08-04T07:34:17.611Z,35.38
2022-08-04T07:34:54.062Z,35.55
2022-08-04T07:36:05.399Z,35.61
2022-08-04T07:36:55.614Z,34.45
2022-08-04T07:37:53.390Z,35.21
2022-08-04T07:38:53.570Z,35.50
2022-08-04T07:39:53.723Z,34.14
2022-08-04T07:40:53.751Z,34.61
2022-08-04T07:41:53.959Z,33.44
2022-08-04T07:42:54.064Z,34.32
2022-08-04T07:43:54.202Z,33.73
2022-08-04T07:44:54.336Z,34.61
2022-08-04T07:45:54.485Z,33.33
2022-08-04T07:46:54.612Z,33.43
2022-08-04T07:48:04.935Z,33.23
2022-08-04T07:48:55.855Z,34.24
2022-08-04T07:49:57.506Z,34.58
2022-08-04T07:50:55.059Z,35.18
2022-08-04T07:51:55.188Z,35.83
2022-08-04T07:53:22.437Z,34.74
2022-08-04T07:53:56.659Z,34.43
2022-08-04T07:54:55.498Z,35.11
2022-08-04T07:55:55.638Z,34.05
2022-08-04T07:56:55.761Z,33.64
2022-08-04T07:57:55.888Z,33.70
2022-08-04T07:58:56.068Z,33.02
2022-08-04T07:59:56.154Z,33.20
2022-08-04T08:00:56.273Z,32.50
2022-08-04T08:01:56.388Z,32.79
2022-08-04T08:02:56.507Z,32.89
2022-08-04T08:03:56.701Z,32.52
2022-08-04T08:04:56.725Z,32.99
2022-08-04T08:06:17.497Z,32.60
2022-08-04T08:06:57.899Z,33.28
2022-08-04T08:07:57.008Z,32.31
2022-08-04T08:08:57.122Z,32.52
2022-08-04T08:09:57.225Z,33.39
2022-08-04T08:10:57.335Z,32.42
2022-08-04T08:12:36.982Z,32.52
2022-08-04T08:12:58.499Z,32.54
2022-08-04T08:13:57.603Z,32.92
2022-08-04T08:14:57.675Z,32.64
2022-08-04T08:15:57.798Z,33.04
2022-08-04T08:16:57.900Z,33.14
2022-08-04T08:18:00.544Z,33.12
2022-08-04T08:18:58.104Z,32.54
2022-08-04T08:19:58.211Z,32.50
2022-08-04T08:20:58.329Z,31.99
2022-08-04T08:22:00.625Z,32.34
2022-08-04T08:22:58.547Z,30.68
2022-08-04T08:23:58.634Z,31.28
2022-08-04T08:24:58.746Z,32.15
2022-08-04T08:25:58.858Z,31.29
2022-08-04T08:26:58.958Z,31.70
2022-08-04T08:27:59.060Z,31.82
2022-08-04T08:28:59.150Z,32.12
2022-08-04T08:29:59.258Z,32.23
2022-08-04T08:30:59.502Z,32.41
2022-08-04T08:32:05.389Z,33.38
2022-08-04T08:33:00.431Z,32.50
2022-08-04T08:33:59.512Z,32.59
2022-08-04T08:34:59.598Z,32.68
2022-08-04T08:35:59.709Z,32.37
2022-08-04T08:36:59.801Z,33.23
2022-08-04T08:37:59.902Z,31.29
2022-08-04T08:39:00.022Z,32.67
2022-08-04T08:40:00.132Z,31.50
2022-08-04T08:41:00.232Z,32.86
2022-08-04T08:42:00.314Z,31.79
2022-08-04T08:43:00.400Z,33.14
2022-08-04T08:44:06.930Z,31.37
2022-08-04T08:45:01.463Z,31.28
2022-08-04T08:46:00.554Z,30.88
2022-08-04T08:47:00.633Z,30.68
2022-08-04T08:48:05.711Z,31.65
2022-08-04T08:49:01.732Z,30.58
2022-08-04T08:50:04.323Z,31.65
2022-08-04T08:51:00.893Z,30.62
2022-08-04T08:52:00.974Z,31.29
2022-08-04T08:53:02.988Z,31.41
2022-08-04T08:54:01.112Z,32.07
2022-08-04T08:55:01.182Z,32.18
2022-08-04T08:56:01.256Z,32.70
2022-08-04T08:57:01.321Z,33.57
2022-08-04T08:58:01.392Z,31.71
2022-08-04T08:59:01.454Z,31.89
2022-08-04T09:00:01.521Z,33.62
2022-08-04T09:01:01.612Z,31.49
2022-08-04T09:02:01.697Z,31.96
2022-08-04T09:03:04.733Z,31.67
2022-08-04T09:04:01.742Z,31.47
2022-08-04T09:05:01.803Z,31.20
2022-08-04T09:06:01.872Z,31.50
2022-08-04T09:07:01.926Z,32.09
2022-08-04T09:08:01.977Z,31.76
2022-08-04T09:09:02.034Z,30.98
2022-08-04T09:10:02.106Z,30.10
2022-08-04T09:11:02.179Z,30.68
2022-08-04T09:12:02.223Z,31.20
2022-08-04T09:13:02.285Z,31.60
2022-08-04T09:14:02.342Z,31.70
2022-08-04T09:15:02.401Z,32.76
2022-08-04T09:16:02.462Z,30.91
2022-08-04T09:17:02.530Z,30.71
2022-08-04T09:18:02.593Z,32.17
2022-08-04T09:19:02.614Z,31.36
2022-08-04T09:20:02.649Z,31.56
2022-08-04T09:21:02.727Z,31.63
2022-08-04T09:22:02.763Z,29.78
2022-08-04T09:23:02.802Z,30.38
2022-08-04T09:24:02.850Z,30.20
2022-08-04T09:25:02.883Z,30.62
2022-08-04T09:26:02.932Z,30.91
2022-08-04T09:27:02.973Z,30.05
2022-08-04T09:28:09.204Z,30.76
2022-08-04T09:29:04.004Z,31.23
2022-08-04T09:30:10.030Z,30.15
2022-08-04T09:31:03.079Z,30.07
2022-08-04T09:32:06.789Z,31.21
2022-08-04T09:33:05.784Z,31.29
2022-08-04T09:34:03.160Z,30.21
2022-08-04T09:35:08.386Z,30.41
2022-08-04T09:36:04.209Z,30.41
2022-08-04T09:37:03.251Z,30.51
2022-08-04T09:38:03.284Z,30.58
2022-08-04T09:39:03.369Z,29.70
2022-08-04T09:40:03.314Z,29.71
2022-08-04T09:41:03.291Z,30.11
2022-08-04T09:42:03.338Z,30.41
2022-08-04T09:43:03.394Z,30.68
2022-08-04T09:44:52.324Z,29.71
2022-08-04T09:45:06.400Z,29.81
2022-08-04T09:46:03.457Z,30.60
2022-08-04T09:47:03.480Z,30.49
2022-08-04T09:48:03.500Z,29.73
2022-08-04T09:49:03.563Z,29.74
2022-08-04T09:50:03.556Z,30.24
2022-08-04T09:51:03.595Z,30.99
2022-08-04T09:52:03.620Z,29.52
2022-08-04T09:53:03.650Z,28.81
2022-08-04T09:54:03.680Z,29.19
2022-08-04T09:55:03.736Z,30.62
2022-08-04T09:56:03.938Z,30.03
2022-08-04T09:57:03.741Z,28.20
2022-08-04T09:58:03.763Z,28.54
2022-08-04T09:59:03.816Z,29.84
2022-08-04T10:00:03.839Z,30.55
2022-08-04T10:01:03.928Z,30.24
2022-08-04T10:02:03.916Z,30.02
2022-08-04T10:03:03.967Z,29.91
2022-08-04T10:04:04.020Z,29.71
2022-08-04T10:05:04.027Z,29.52
2022-08-04T10:06:04.077Z,29.70
2022-08-04T10:07:04.154Z,28.44
2022-08-04T10:08:15.435Z,28.83
2022-08-04T10:09:05.047Z,28.33
2022-08-04T10:10:04.080Z,28.44
2022-08-04T10:11:04.109Z,28.83
2022-08-04T10:12:04.131Z,29.02
2022-08-04T10:13:04.148Z,28.62
2022-08-04T10:14:04.139Z,28.43
2022-08-04T10:15:04.128Z,28.52
2022-08-04T10:16:04.168Z,29.90
2022-08-04T10:17:04.168Z,29.32
2022-08-04T10:18:04.192Z,29.63
2022-08-04T10:19:08.373Z,30.65
2022-08-04T10:20:04.231Z,31.04
2022-08-04T10:21:10.226Z,31.23
2022-08-04T10:22:28.172Z,30.73
2022-08-04T10:23:11.393Z,30.44
2022-08-04T10:24:05.197Z,30.82
2022-08-04T10:25:04.219Z,30.89
2022-08-04T10:26:07.224Z,29.41
2022-08-04T10:27:04.191Z,29.20
2022-08-04T10:28:04.221Z,28.89
2022-08-04T10:29:04.231Z,28.31
2022-08-04T10:30:04.262Z,28.51
2022-08-04T10:31:04.274Z,29.19
2022-08-04T10:32:04.325Z,30.12
2022-08-04T10:33:04.330Z,28.47
2022-08-04T10:34:04.348Z,27.81
2022-08-04T10:35:04.371Z,28.62
2022-08-04T10:36:04.386Z,28.72
2022-08-04T10:37:04.432Z,28.94
2022-08-04T10:38:04.437Z,28.85
2022-08-04T10:39:04.497Z,29.49
2022-08-04T10:40:04.548Z,28.52
2022-08-04T10:41:04.530Z,28.64
2022-08-04T10:42:04.547Z,29.03
2022-08-04T10:43:04.559Z,28.83
2022-08-04T10:44:04.615Z,28.62
2022-08-04T10:45:04.630Z,28.52
2022-08-04T10:46:04.650Z,27.94
2022-08-04T10:47:04.677Z,28.15
2022-08-04T10:48:04.699Z,27.94
2022-08-04T10:49:04.708Z,27.93
2022-08-04T10:50:04.729Z,28.03
2022-08-04T10:51:04.748Z,28.12
2022-08-04T10:52:04.777Z,28.11
2022-08-04T10:53:04.815Z,27.92
2022-08-04T10:54:04.849Z,28.40
2022-08-04T10:55:04.876Z,27.83
2022-08-04T10:56:07.047Z,28.12
2022-08-04T10:57:04.868Z,28.00
2022-08-04T10:58:04.899Z,27.31
2022-08-04T10:59:04.916Z,27.78
2022-08-04T11:00:04.949Z,27.39
2022-08-04T11:01:04.978Z,26.89
2022-08-04T11:02:05.020Z,27.06
2022-08-04T11:03:05.127Z,26.90
2022-08-04T11:04:05.050Z,27.09
2022-08-04T11:05:05.083Z,27.09
2022-08-04T11:06:05.116Z,27.27
2022-08-04T11:07:05.147Z,26.20
2022-08-04T11:08:10.023Z,26.28
2022-08-04T11:09:06.160Z,26.29
2022-08-04T11:10:06.138Z,26.61
2022-08-04T11:11:05.162Z,27.19
2022-08-04T11:12:05.186Z,26.02
2022-08-04T11:13:05.204Z,26.48
2022-08-04T11:14:05.226Z,26.18
2022-08-04T11:15:05.249Z,26.00
2022-08-04T11:16:05.262Z,26.78
2022-08-04T11:17:05.277Z,26.67
2022-08-04T11:18:05.294Z,26.07
2022-08-04T11:19:06.259Z,26.59
2022-08-04T11:20:32.082Z,26.90
2022-08-04T11:21:06.255Z,27.16
2022-08-04T11:22:06.224Z,26.86
2022-08-04T11:23:05.256Z,25.88
2022-08-04T11:24:05.263Z,26.10
2022-08-04T11:25:05.290Z,27.67
2022-08-04T11:26:05.313Z,27.16
2022-08-04T11:27:05.328Z,26.18
2022-08-04T11:28:05.351Z,25.51
2022-08-04T11:29:05.373Z,26.07
2022-08-04T11:30:05.402Z,25.52
2022-08-04T11:31:05.453Z,26.00
2022-08-04T11:32:05.490Z,26.20
2022-08-04T11:33:05.508Z,25.60
2022-08-04T11:34:05.534Z,25.98
2022-08-04T11:35:05.558Z,25.09
2022-08-04T11:36:05.585Z,25.65
2022-08-04T11:37:05.603Z,25.35
2022-08-04T11:38:06.581Z,24.13
2022-08-04T11:39:05.635Z,24.14
2022-08-04T11:40:05.650Z,24.24
2022-08-04T11:41:05.684Z,25.02
2022-08-04T11:42:05.742Z,23.85
2022-08-04T11:43:05.758Z,23.93
2022-08-04T11:44:09.176Z,23.94
2022-08-04T11:45:06.782Z,24.44
2022-08-04T11:46:05.804Z,25.13
2022-08-04T11:47:05.886Z,24.49
2022-08-04T11:48:05.929Z,25.75
2022-08-04T11:49:05.970Z,25.38
2022-08-04T11:50:06.010Z,24.69
2022-08-04T11:51:06.828Z,24.87
2022-08-04T11:52:06.169Z,25.07
2022-08-04T11:53:06.218Z,25.16
2022-08-04T11:54:06.269Z,24.96
2022-08-04T11:55:06.319Z,25.05
2022-08-04T11:56:07.831Z,25.15
2022-08-04T11:57:06.375Z,25.13
2022-08-04T11:58:06.440Z,25.03
2022-08-04T11:59:06.486Z,25.03
2022-08-04T12:00:07.263Z,25.52
2022-08-04T12:01:06.519Z,24.56
2022-08-04T12:02:06.650Z,24.66
2022-08-04T12:03:06.606Z,24.27
2022-08-04T12:04:06.659Z,24.46
2022-08-04T12:05:06.718Z,24.97
2022-08-04T12:06:06.774Z,25.18
2022-08-04T12:07:30.167Z,25.45
2022-08-04T12:08:07.871Z,25.54
2022-08-04T12:09:06.934Z,24.55
2022-08-04T12:10:06.925Z,24.15
2022-08-04T12:11:06.988Z,23.46
2022-08-04T12:12:07.071Z,23.16
2022-08-04T12:13:07.041Z,23.25
2022-08-04T12:14:07.091Z,23.26
2022-08-04T12:15:07.150Z,24.15
2022-08-04T12:16:07.221Z,23.96
2022-08-04T12:17:07.285Z,24.45
2022-08-04T12:18:07.655Z,24.34
2022-08-04T12:19:07.335Z,24.24
2022-08-04T12:20:34.292Z,24.51
2022-08-04T12:21:08.388Z,24.04
2022-08-04T12:22:07.430Z,24.62
2022-08-04T12:23:07.409Z,24.34
2022-08-04T12:24:07.496Z,24.33
2022-08-04T12:25:07.566Z,24.14
2022-08-04T12:26:07.620Z,24.73
2022-08-04T12:27:07.700Z,25.11
2022-08-04T12:28:07.790Z,24.81
2022-08-04T12:29:10.056Z,25.44
2022-08-04T12:30:58.369Z,25.82
2022-08-04T12:31:11.628Z,26.22
2022-08-04T12:32:07.972Z,25.54
2022-08-04T12:33:07.973Z,26.03
2022-08-04T12:34:08.057Z,25.33
2022-08-04T12:35:08.117Z,24.73
2022-08-04T12:36:12.469Z,25.02
2022-08-04T12:37:08.294Z,25.32
2022-08-04T12:38:08.356Z,24.74
2022-08-04T12:39:08.486Z,25.15
2022-08-04T12:40:27.544Z,25.73
2022-08-04T12:41:09.487Z,25.37
2022-08-04T12:42:08.571Z,26.51
2022-08-04T12:43:08.634Z,24.85
2022-08-04T12:44:10.711Z,25.45
2022-08-04T12:45:09.721Z,25.15
2022-08-04T12:46:08.784Z,26.21
2022-08-04T12:47:27.040Z,24.57
2022-08-04T12:48:09.823Z,25.24
2022-08-04T12:49:08.874Z,24.61
2022-08-04T12:50:08.943Z,24.79
2022-08-04T12:51:31.017Z,24.60
2022-08-04T12:52:10.039Z,25.20
2022-08-04T12:53:09.113Z,25.95
2022-08-04T12:54:09.195Z,24.46